Time;durP1;ratioP1;P1;durP2;ratioP2;P2;SDS_P1;SDS_P2;PMS_P1;PMS_P2;Temp;Humidity;BMP_temperature;BMP_pressure;BME280_temperature;BME280_humidity;BME280_pressure;Samples;Min_cycle;Max_cycle;Signal;HPM_P1;HPM_P2
2021/05/31 00:04:20;;;;;;;6.00;4.10;;;;;;;;;;10326683;28;20048;-65
2021/05/31 00:09:17;;;;;;;1.67;1.57;;;;;;;;;;10308108;28;20425;-65
2021/05/31 00:14:15;;;;;;;6.37;3.77;;;;;;;;;;10318573;28;20796;-65
2021/05/31 00:19:14;;;;;;;12.77;4.73;;;;;;;;;;10328235;28;20037;-64
2021/05/31 00:24:11;;;;;;;4.55;3.03;;;;;;;;;;10356112;28;20493;-65
2021/05/31 00:29:09;;;;;;;4.13;3.47;;;;;;;;;;10303163;28;20448;-65
2021/05/31 00:34:06;;;;;;;8.87;4.90;;;;;;;;;;10330257;28;20421;-64
2021/05/31 00:39:05;;;;;;;8.85;4.25;;;;;;;;;;10318773;28;20143;-65
2021/05/31 00:44:03;;;;;;;6.70;3.87;;;;;;;;;;10321687;28;20483;-64
2021/05/31 00:49:00;;;;;;;8.90;3.42;;;;;;;;;;10318532;28;20502;-64
2021/05/31 00:53:59;;;;;;;5.50;3.27;;;;;;;;;;10327035;28;20589;-64
2021/05/31 00:58:56;;;;;;;1.55;1.35;;;;;;;;;;10317245;28;20033;-64
2021/05/31 01:03:53;;;;;;;2.37;2.00;;;;;;;;;;10325965;28;20036;-64
2021/05/31 01:09:00;;;;;;;3.00;2.70;;;;;;;;;;10318286;28;20037;-63
2021/05/31 01:14:32;;;;;;;2.78;2.05;;;;;;;;;;10312233;28;20041;-64
2021/05/31 01:19:42;;;;;;;2.35;1.65;;;;;;;;;;10291173;28;20140;-65
2021/05/31 01:24:55;;;;;;;3.10;2.22;;;;;;;;;;10313391;28;20055;-65
2021/05/31 01:29:55;;;;;;;11.63;3.90;;;;;;;;;;10307163;28;20036;-64
2021/05/31 01:34:53;;;;;;;4.35;3.17;;;;;;;;;;10315120;28;20057;-64
2021/05/31 01:39:52;;;;;;;4.73;3.53;;;;;;;;;;10320864;28;20120;-64
2021/05/31 01:44:49;;;;;;;3.80;3.50;;;;;;;;;;10329386;28;20033;-64
2021/05/31 01:49:47;;;;;;;6.97;3.90;;;;;;;;;;10331945;28;20517;-63
2021/05/31 01:54:44;;;;;;;5.83;3.67;;;;;;;;;;10331709;28;20044;-64
2021/05/31 01:59:42;;;;;;;4.93;3.70;;;;;;;;;;10337529;28;20033;-63
2021/05/31 02:04:39;;;;;;;4.20;3.27;;;;;;;;;;10325652;28;20411;-63
2021/05/31 02:09:38;;;;;;;4.20;3.53;;;;;;;;;;10321259;28;20095;-63
2021/05/31 02:14:51;;;;;;;13.48;3.15;;;;;;;;;;10355273;28;20063;-63
2021/05/31 02:19:52;;;;;;;18.85;3.65;;;;;;;;;;10310045;28;20053;-64
2021/05/31 02:24:51;;;;;;;1.30;1.20;;;;;;;;;;10316105;28;20526;-63
2021/05/31 02:29:48;;;;;;;;;;;;;;;;;;10325792;28;20041;-64
2021/05/31 02:34:45;;;;;;;0.75;0.65;;;;;;;;;;10320920;28;20386;-64
2021/05/31 02:39:43;;;;;;;1.50;0.80;;;;;;;;;;10323969;28;20037;-64
2021/05/31 02:44:40;;;;;;;0.20;0.20;;;;;;;;;;10321463;28;20043;-64
2021/05/31 02:49:37;;;;;;;2.60;1.03;;;;;;;;;;10311694;28;20552;-65
2021/05/31 02:54:35;;;;;;;2.47;2.20;;;;;;;;;;10330986;27;20041;-66
2021/05/31 02:59:32;;;;;;;4.40;2.47;;;;;;;;;;10320126;28;20399;-66
2021/05/31 03:04:29;;;;;;;6.50;1.77;;;;;;;;;;10326890;28;20041;-67
2021/05/31 03:09:27;;;;;;;2.50;1.70;;;;;;;;;;10332814;28;20384;-66
2021/05/31 03:14:24;;;;;;;0.97;0.87;;;;;;;;;;10331824;28;20032;-66
2021/05/31 03:19:22;;;;;;;0.60;0.60;;;;;;;;;;10328180;28;20047;-66
2021/05/31 03:24:19;;;;;;;0.97;0.70;;;;;;;;;;10322406;28;20037;-65
2021/05/31 03:29:16;;;;;;;1.00;1.00;;;;;;;;;;10321851;28;20038;-65
2021/05/31 03:34:14;;;;;;;1.77;1.33;;;;;;;;;;10332924;28;20033;-66
2021/05/31 03:39:11;;;;;;;1.20;1.10;;;;;;;;;;10322160;28;20132;-65
2021/05/31 03:44:09;;;;;;;2.43;1.03;;;;;;;;;;10320699;28;20411;-62
2021/05/31 03:49:06;;;;;;;1.00;0.90;;;;;;;;;;10333278;28;21149;-63
2021/05/31 03:54:04;;;;;;;1.20;1.10;;;;;;;;;;10325599;28;20388;-63
2021/05/31 03:59:01;;;;;;;1.13;0.83;;;;;;;;;;10314903;28;20049;-64
2021/05/31 04:03:59;;;;;;;1.33;0.97;;;;;;;;;;10315436;28;20092;-63
2021/05/31 04:14:14;;;;;;;1.60;1.15;;;;;;;;;;10307440;28;20469;-63
2021/05/31 04:19:12;;;;;;;1.40;1.30;;;;;;;;;;10332938;28;20189;-65
2021/05/31 04:24:11;;;;;;;1.50;0.98;;;;;;;;;;10321137;28;20041;-62
2021/05/31 04:29:08;;;;;;;;;;;;;;;;;;10315923;28;20033;-63
2021/05/31 04:34:07;;;;;;;2.88;1.60;;;;;;;;;;10335856;28;19920;-64
2021/05/31 04:39:05;;;;;;;3.65;1.65;;;;;;;;;;10322801;28;20123;-65
2021/05/31 04:44:03;;;;;;;3.28;1.88;;;;;;;;;;10318744;28;20036;-64
2021/05/31 04:49:01;;;;;;;5.10;2.83;;;;;;;;;;10320551;28;20043;-65
2021/05/31 04:53:59;;;;;;;7.07;2.97;;;;;;;;;;10320390;28;20284;-65
2021/05/31 04:58:56;;;;;;;8.50;3.63;;;;;;;;;;10330653;28;20525;-64
2021/05/31 05:03:54;;;;;;;8.00;3.83;;;;;;;;;;10327213;28;20044;-64
2021/05/31 05:08:53;;;;;;;7.47;4.17;;;;;;;;;;10339422;28;20060;-65
2021/05/31 05:13:52;;;;;;;8.98;4.70;;;;;;;;;;10319830;28;20072;-66
2021/05/31 05:18:50;;;;;;;12.38;4.43;;;;;;;;;;10321652;28;20059;-67
2021/05/31 05:23:47;;;;;;;8.83;4.27;;;;;;;;;;10308925;28;20080;-65
2021/05/31 05:28:46;;;;;;;11.90;4.97;;;;;;;;;;10336089;28;20033;-63
2021/05/31 05:33:44;;;;;;;8.38;5.22;;;;;;;;;;10321853;28;20045;-65
2021/05/31 05:39:38;;;;;;;11.83;6.10;;;;;;;;;;10298342;28;20041;-65
2021/05/31 05:48:59;;;;;;;10.40;4.95;;;;;;;;;;10299401;28;20037;-63
2021/05/31 05:53:58;;;;;;;11.10;5.00;;;;;;;;;;10306422;28;20128;-65
2021/05/31 05:58:57;;;;;;;10.02;4.55;;;;;;;;;;10311005;28;20045;-65
2021/05/31 06:03:55;;;;;;;6.82;4.10;;;;;;;;;;10321886;28;20038;-66
2021/05/31 06:08:53;;;;;;;8.80;4.23;;;;;;;;;;10317834;28;20033;-65
2021/05/31 06:13:53;;;;;;;11.57;5.27;;;;;;;;;;10311190;28;20041;-63
2021/05/31 06:18:50;;;;;;;7.80;4.28;;;;;;;;;;10313219;28;20072;-65
2021/05/31 06:23:48;;;;;;;4.00;2.70;;;;;;;;;;10307841;28;20132;-63
2021/05/31 06:28:45;;;;;;;4.03;2.13;;;;;;;;;;10326077;28;20099;-66
2021/05/31 06:33:43;;;;;;;5.23;3.13;;;;;;;;;;10318735;28;20041;-64
2021/05/31 06:38:40;;;;;;;3.97;2.60;;;;;;;;;;10327059;28;20042;-65
2021/05/31 06:43:38;;;;;;;4.03;2.23;;;;;;;;;;10322302;28;20037;-63
2021/05/31 06:48:37;;;;;;;9.00;4.30;;;;;;;;;;10331447;28;20497;-62
2021/05/31 06:53:34;;;;;;;2.97;2.17;;;;;;;;;;10341721;28;20025;-63
2021/05/31 06:58:32;;;;;;;4.77;3.20;;;;;;;;;;10315386;28;20032;-65
2021/05/31 07:03:29;;;;;;;4.00;2.13;;;;;;;;;;10318300;28;20035;-63
2021/05/31 07:08:27;;;;;;;4.83;3.03;;;;;;;;;;10321944;28;20044;-63
2021/05/31 07:13:25;;;;;;;4.07;2.80;;;;;;;;;;10305254;28;20498;-63
2021/05/31 07:18:23;;;;;;;4.13;2.53;;;;;;;;;;10321331;28;20028;-65
2021/05/31 07:23:21;;;;;;;4.07;2.33;;;;;;;;;;10316188;28;20377;-64
2021/05/31 07:28:18;;;;;;;4.30;1.63;;;;;;;;;;10330544;28;20033;-66
2021/05/31 07:33:16;;;;;;;9.07;2.97;;;;;;;;;;10317436;28;20038;-63
2021/05/31 07:38:13;;;;;;;4.47;2.27;;;;;;;;;;10316384;28;20036;-66
2021/05/31 07:43:11;;;;;;;5.00;2.67;;;;;;;;;;10329856;28;20293;-65
2021/05/31 07:48:08;;;;;;;6.35;2.30;;;;;;;;;;10333638;28;20029;-65
2021/05/31 07:53:06;;;;;;;;;;;;;;;;;;10316805;28;20049;-65
2021/05/31 07:58:03;;;;;;;3.20;1.70;;;;;;;;;;10311005;28;19931;-66
2021/05/31 08:03:00;;;;;;;;;;;;;;;;;;10321029;28;20041;-63
2021/05/31 08:07:58;;;;;;;2.90;1.77;;;;;;;;;;10318640;28;19920;-66
2021/05/31 08:12:55;;;;;;;;;;;;;;;;;;10316731;28;20083;-66
2021/05/31 08:17:53;;;;;;;2.03;1.23;;;;;;;;;;10311864;28;20299;-65
2021/05/31 08:22:50;;;;;;;3.90;1.90;;;;;;;;;;10315378;28;20387;-65
2021/05/31 08:27:47;;;;;;;3.38;1.90;;;;;;;;;;10301147;28;20283;-65
2021/05/31 08:32:45;;;;;;;4.67;2.07;;;;;;;;;;10321914;28;20124;-65
2021/05/31 08:37:43;;;;;;;3.15;1.75;;;;;;;;;;10316659;28;20286;-63
2021/05/31 08:42:41;;;;;;;2.65;1.55;;;;;;;;;;10318795;28;20062;-63
2021/05/31 08:47:39;;;;;;;3.67;2.00;;;;;;;;;;10309027;28;20044;-64
2021/05/31 08:52:37;;;;;;;1.92;1.25;;;;;;;;;;10319266;28;20029;-63
2021/05/31 08:57:34;;;;;;;2.13;1.48;;;;;;;;;;10316211;28;20037;-64
2021/05/31 09:02:34;;;;;;;6.50;2.65;;;;;;;;;;10310108;28;20450;-64
2021/05/31 09:07:32;;;;;;;4.13;2.03;;;;;;;;;;10314932;28;20094;-64
2021/05/31 09:12:32;;;;;;;4.60;1.95;;;;;;;;;;10312835;28;20422;-63
2021/05/31 09:17:30;;;;;;;3.60;2.40;;;;;;;;;;10302249;28;20040;-64
2021/05/31 09:22:28;;;;;;;4.88;1.75;;;;;;;;;;10320448;28;20862;-63
2021/05/31 09:27:27;;;;;;;2.10;1.40;;;;;;;;;;10315386;28;20120;-62
2021/05/31 09:32:26;;;;;;;2.60;2.05;;;;;;;;;;10296667;28;20033;-64
2021/05/31 09:37:23;;;;;;;2.55;1.45;;;;;;;;;;10299407;28;20036;-64
2021/05/31 09:42:21;;;;;;;3.78;0.98;;;;;;;;;;10304426;28;20047;-63
2021/05/31 09:47:26;;;;;;;3.97;1.80;;;;;;;;;;10317852;28;20080;-64
2021/05/31 09:52:24;;;;;;;1.90;1.70;;;;;;;;;;10318677;28;20338;-63
2021/05/31 09:57:21;;;;;;;2.95;1.88;;;;;;;;;;10335062;28;20037;-63
2021/05/31 10:02:27;;;;;;;2.55;2.10;;;;;;;;;;10324090;28;20663;-63
2021/05/31 10:12:28;;;;;;;7.90;3.03;;;;;;;;;;10329538;28;20078;-65
2021/05/31 10:17:26;;;;;;;3.00;2.00;;;;;;;;;;10333393;28;20025;-65
2021/05/31 10:22:23;;;;;;;4.03;2.92;;;;;;;;;;10321975;28;20788;-64
2021/05/31 10:27:21;;;;;;;5.27;2.10;;;;;;;;;;10328180;28;20041;-64
2021/05/31 10:32:18;;;;;;;3.03;1.58;;;;;;;;;;10318946;28;20065;-64
2021/05/31 10:37:23;;;;;;;6.17;2.87;;;;;;;;;;10332895;28;20491;-64
2021/05/31 10:42:23;;;;;;;2.55;1.88;;;;;;;;;;10315861;28;20430;-64
2021/05/31 10:47:26;;;;;;;2.40;2.17;;;;;;;;;;10322547;28;20025;-65
2021/05/31 10:52:24;;;;;;;1.80;1.70;;;;;;;;;;10321823;28;20379;-64
2021/05/31 10:57:22;;;;;;;3.63;1.87;;;;;;;;;;10307210;28;20049;-64
2021/05/31 11:02:23;;;;;;;6.15;3.05;;;;;;;;;;10329148;28;20278;-65
2021/05/31 11:07:27;;;;;;;3.28;2.05;;;;;;;;;;10323944;28;20034;-65
2021/05/31 11:12:28;;;;;;;4.82;2.08;;;;;;;;;;10315388;28;20055;-64
2021/05/31 11:17:26;;;;;;;4.88;2.83;;;;;;;;;;10322530;28;20076;-65
2021/05/31 11:22:33;;;;;;;3.93;2.43;;;;;;;;;;10319643;28;20124;-63
2021/05/31 11:27:30;;;;;;;;;;;;;;;;;;10300675;28;20537;-65
2021/05/31 11:32:28;;;;;;;1.92;1.80;;;;;;;;;;10326374;28;19920;-64
2021/05/31 11:37:26;;;;;;;6.17;2.40;;;;;;;;;;10329076;28;20084;-65
2021/05/31 11:42:24;;;;;;;2.95;2.05;;;;;;;;;;10335448;28;20420;-64
2021/05/31 11:47:25;;;;;;;3.88;1.58;;;;;;;;;;10324974;28;20136;-64
2021/05/31 11:52:23;;;;;;;3.17;1.50;;;;;;;;;;10336849;28;20044;-64
2021/05/31 11:57:23;;;;;;;4.65;2.03;;;;;;;;;;10311853;28;20052;-63
2021/05/31 12:02:23;;;;;;;3.17;1.80;;;;;;;;;;10321578;28;20030;-64
2021/05/31 12:07:23;;;;;;;4.97;2.50;;;;;;;;;;10318191;28;20406;-64
2021/05/31 12:12:25;;;;;;;2.65;1.63;;;;;;;;;;10314896;28;20021;-64
2021/05/31 12:17:24;;;;;;;3.50;1.95;;;;;;;;;;10329016;28;20098;-64
2021/05/31 12:22:22;;;;;;;3.65;1.52;;;;;;;;;;10334166;28;20032;-64
2021/05/31 12:27:28;;;;;;;5.40;2.55;;;;;;;;;;10334539;28;20055;-64
2021/05/31 12:32:26;;;;;;;3.58;2.33;;;;;;;;;;10321606;28;20050;-64
2021/05/31 12:37:29;;;;;;;5.20;2.75;;;;;;;;;;10330325;28;20037;-64
2021/05/31 12:42:28;;;;;;;4.90;2.85;;;;;;;;;;10326960;28;20409;-64
2021/05/31 12:47:31;;;;;;;5.38;2.83;;;;;;;;;;10308502;28;20044;-64
2021/05/31 12:52:30;;;;;;;5.10;2.33;;;;;;;;;;10330817;28;20052;-64
2021/05/31 12:57:47;;;;;;;3.45;2.70;;;;;;;;;;10326954;28;20034;-64
2021/05/31 13:02:45;;;;;;;3.83;2.58;;;;;;;;;;10337404;28;20036;-64
2021/05/31 13:07:48;;;;;;;4.55;3.20;;;;;;;;;;10331526;28;20401;-64
2021/05/31 13:12:55;;;;;;;1.67;1.10;;;;;;;;;;10344562;28;20029;-63
2021/05/31 13:17:53;;;;;;;7.53;3.10;;;;;;;;;;10325701;28;20315;-63
2021/05/31 13:22:55;;;;;;;2.57;2.07;;;;;;;;;;10332560;28;20091;-64
2021/05/31 13:27:53;;;;;;;6.38;3.85;;;;;;;;;;10331487;28;20029;-63
2021/05/31 13:32:57;;;;;;;5.43;3.35;;;;;;;;;;10330335;28;20512;-64
2021/05/31 13:37:56;;;;;;;4.15;3.33;;;;;;;;;;10340189;28;20056;-64
2021/05/31 13:42:55;;;;;;;4.70;2.83;;;;;;;;;;10328204;28;20048;-64
2021/05/31 13:47:52;;;;;;;6.90;3.17;;;;;;;;;;10336220;28;20026;-64
2021/05/31 13:52:50;;;;;;;3.17;2.07;;;;;;;;;;10329644;28;20123;-65
2021/05/31 13:57:48;;;;;;;3.75;2.65;;;;;;;;;;10336866;28;20271;-64
2021/05/31 14:02:47;;;;;;;2.45;2.25;;;;;;;;;;10327669;28;20463;-64
2021/05/31 14:07:44;;;;;;;4.28;3.00;;;;;;;;;;10337937;28;20033;-63
2021/05/31 14:12:43;;;;;;;3.93;2.90;;;;;;;;;;10326091;28;20037;-64
2021/05/31 14:17:43;;;;;;;3.38;2.38;;;;;;;;;;10335686;28;20353;-64
2021/05/31 14:22:41;;;;;;;5.53;2.70;;;;;;;;;;10319507;28;20033;-63
2021/05/31 14:27:39;;;;;;;3.65;1.77;;;;;;;;;;10340174;28;20418;-64
2021/05/31 14:32:36;;;;;;;3.50;2.45;;;;;;;;;;10326682;28;20168;-64
2021/05/31 14:37:34;;;;;;;4.05;2.50;;;;;;;;;;10317652;28;20024;-64
2021/05/31 14:42:31;;;;;;;3.37;2.07;;;;;;;;;;10325037;28;20025;-64
2021/05/31 14:47:30;;;;;;;3.57;2.50;;;;;;;;;;10319326;28;20283;-64
2021/05/31 14:52:32;;;;;;;7.57;2.30;;;;;;;;;;10345901;28;20773;-64
2021/05/31 14:57:30;;;;;;;4.07;2.17;;;;;;;;;;10319232;28;20033;-64
2021/05/31 15:02:27;;;;;;;5.22;2.50;;;;;;;;;;10334484;28;20480;-64
2021/05/31 15:07:25;;;;;;;3.90;2.57;;;;;;;;;;10328773;28;20131;-64
2021/05/31 15:12:22;;;;;;;2.17;1.93;;;;;;;;;;10328140;28;20280;-64
2021/05/31 15:17:20;;;;;;;3.93;3.07;;;;;;;;;;10331423;28;20761;-64
2021/05/31 15:22:18;;;;;;;3.90;2.33;;;;;;;;;;10324042;28;20029;-66
2021/05/31 15:27:16;;;;;;;1.95;1.52;;;;;;;;;;10339410;28;20044;-66
2021/05/31 15:32:13;;;;;;;3.55;2.17;;;;;;;;;;10322393;28;20039;-66
2021/05/31 15:37:11;;;;;;;4.18;2.65;;;;;;;;;;10356383;22;20044;-62
2021/05/31 15:42:09;;;;;;;5.20;2.83;;;;;;;;;;10340128;28;20037;-62
2021/05/31 15:47:09;;;;;;;3.35;2.28;;;;;;;;;;10335300;28;20685;-62
2021/05/31 15:52:07;;;;;;;3.53;2.20;;;;;;;;;;10304881;28;20441;-63
2021/05/31 15:57:05;;;;;;;4.15;2.03;;;;;;;;;;10306830;28;20041;-63
2021/05/31 16:02:03;;;;;;;3.20;1.63;;;;;;;;;;10322374;28;20116;-62
2021/05/31 16:07:00;;;;;;;1.42;1.33;;;;;;;;;;10318689;28;20045;-62
2021/05/31 16:11:58;;;;;;;5.65;3.83;;;;;;;;;;10325031;28;20653;-63
2021/05/31 16:16:55;;;;;;;7.43;3.92;;;;;;;;;;10328865;28;20086;-62
2021/05/31 16:21:53;;;;;;;5.50;2.80;;;;;;;;;;10321191;28;20067;-62
2021/05/31 16:26:51;;;;;;;4.05;3.10;;;;;;;;;;10341861;28;20288;-62
2021/05/31 16:31:48;;;;;;;3.20;2.15;;;;;;;;;;10327914;28;20091;-62
2021/05/31 16:36:45;;;;;;;6.03;2.33;;;;;;;;;;10334296;28;20040;-62
2021/05/31 16:41:43;;;;;;;3.43;1.87;;;;;;;;;;10298251;28;20060;-62
2021/05/31 16:46:40;;;;;;;4.53;2.40;;;;;;;;;;10316750;28;20048;-62
2021/05/31 16:51:38;;;;;;;4.47;2.97;;;;;;;;;;10328409;28;20037;-64
2021/05/31 16:56:36;;;;;;;3.60;2.57;;;;;;;;;;10325520;28;20329;-65
2021/05/31 17:01:34;;;;;;;2.58;1.73;;;;;;;;;;10299756;28;20284;-65
2021/05/31 17:06:35;;;;;;;2.70;1.98;;;;;;;;;;10332271;28;20017;-66
2021/05/31 17:22:05;;;;;;;3.83;2.08;;;;;;;;;;10301754;28;20526;-65
2021/05/31 17:27:02;;;;;;;5.35;2.50;;;;;;;;;;10290920;28;20899;-65
2021/05/31 17:37:16;;;;;;;1.92;1.63;;;;;;;;;;10330363;28;20068;-65
2021/05/31 17:42:13;;;;;;;3.30;2.87;;;;;;;;;;10295341;28;20115;-65
2021/05/31 17:47:11;;;;;;;6.30;3.40;;;;;;;;;;10279059;28;20037;-65
2021/05/31 17:52:08;;;;;;;2.40;1.17;;;;;;;;;;10304910;28;20051;-64
2021/05/31 17:57:06;;;;;;;5.13;3.47;;;;;;;;;;10296050;28;20041;-65
2021/05/31 18:02:06;;;;;;;7.22;2.67;;;;;;;;;;10303095;28;20044;-66
2021/05/31 18:07:04;;;;;;;4.60;3.22;;;;;;;;;;10293060;28;20048;-64
2021/05/31 18:12:04;;;;;;;4.15;3.08;;;;;;;;;;10271559;28;20048;-66
2021/05/31 18:17:03;;;;;;;6.00;3.63;;;;;;;;;;10243934;28;20041;-62
2021/05/31 18:22:01;;;;;;;5.40;2.63;;;;;;;;;;10253241;28;20452;-62
2021/05/31 18:26:58;;;;;;;5.95;3.03;;;;;;;;;;10244502;28;20046;-62
2021/05/31 18:31:55;;;;;;;4.30;2.77;;;;;;;;;;10244729;28;20499;-61
2021/05/31 18:36:56;;;;;;;3.83;2.00;;;;;;;;;;10259357;28;20296;-62
2021/05/31 18:41:54;;;;;;;4.72;2.75;;;;;;;;;;10256918;28;20768;-62
2021/05/31 18:46:51;;;;;;;6.57;1.97;;;;;;;;;;10260391;28;20049;-61
2021/05/31 18:51:49;;;;;;;1.75;1.40;;;;;;;;;;10262237;28;20490;-62
2021/05/31 18:56:48;;;;;;;3.53;1.55;;;;;;;;;;10234373;28;20073;-65
2021/05/31 19:01:46;;;;;;;0.88;0.77;;;;;;;;;;10197067;28;20038;-66
2021/05/31 19:06:43;;;;;;;3.08;0.98;;;;;;;;;;10245287;28;20634;-65
2021/05/31 19:11:41;;;;;;;1.20;1.10;;;;;;;;;;10263845;28;20080;-65
2021/05/31 19:16:39;;;;;;;2.40;1.25;;;;;;;;;;10260187;28;20041;-66
2021/05/31 19:21:37;;;;;;;2.22;1.38;;;;;;;;;;10240355;28;20044;-66
2021/05/31 19:26:35;;;;;;;1.38;0.93;;;;;;;;;;10239295;28;20045;-64
2021/05/31 19:31:32;;;;;;;0.88;0.88;;;;;;;;;;10237000;28;20030;-65
2021/05/31 19:36:30;;;;;;;2.10;0.80;;;;;;;;;;10256350;28;20124;-65
2021/05/31 19:41:28;;;;;;;4.95;1.33;;;;;;;;;;10259095;28;20790;-64
2021/05/31 19:46:27;;;;;;;4.40;1.13;;;;;;;;;;10258460;28;20041;-64
2021/05/31 19:51:32;;;;;;;2.75;0.90;;;;;;;;;;10238500;28;20049;-65
2021/05/31 19:56:37;;;;;;;1.15;0.70;;;;;;;;;;10243972;28;20220;-65
2021/05/31 20:01:34;;;;;;;5.07;3.85;;;;;;;;;;10251050;28;20038;-66
2021/05/31 20:06:32;;;;;;;7.17;4.00;;;;;;;;;;10256539;28;20033;-66
2021/05/31 20:11:29;;;;;;;6.80;3.80;;;;;;;;;;10257247;28;20622;-66
2021/05/31 20:16:27;;;;;;;7.18;3.83;;;;;;;;;;10262807;28;20288;-65
2021/05/31 20:21:24;;;;;;;6.18;4.40;;;;;;;;;;10259294;28;20492;-65
2021/05/31 20:26:22;;;;;;;6.23;3.87;;;;;;;;;;10244836;28;20152;-64
2021/05/31 20:31:19;;;;;;;;;;;;;;;;;;10259787;28;20288;-65
2021/05/31 20:36:17;;;;;;;4.57;2.55;;;;;;;;;;10257590;28;19929;-64
2021/05/31 20:41:14;;;;;;;;;;;;;;;;;;10258773;28;20026;-64
2021/05/31 20:46:12;;;;;;;4.10;3.10;;;;;;;;;;10253008;28;19925;-63
2021/05/31 20:51:09;;;;;;;;;;;;;;;;;;10231078;28;20047;-64
2021/05/31 20:56:07;;;;;;;7.13;5.00;;;;;;;;;;10250143;28;19917;-64
2021/05/31 21:01:05;;;;;;;3.50;2.28;;;;;;;;;;10231206;28;20276;-66
2021/05/31 21:06:02;;;;;;;;;;;;;;;;;;10260506;28;20037;-64
2021/05/31 21:11:02;;;;;;;6.23;3.10;;;;;;;;;;10253739;28;19925;-64
2021/05/31 21:16:01;;;;;;;5.88;2.60;;;;;;;;;;10242890;28;20367;-65
2021/05/31 21:20:59;;;;;;;5.03;3.90;;;;;;;;;;10250115;28;20037;-65
2021/05/31 21:25:56;;;;;;;;;;;;;;;;;;10260068;28;20048;-66
2021/05/31 21:30:57;;;;;;;7.10;4.63;;;;;;;;;;10257404;28;19921;-66
2021/05/31 21:35:55;;;;;;;5.53;4.07;;;;;;;;;;10243172;28;20397;-63
2021/05/31 21:40:53;;;;;;;6.07;4.18;;;;;;;;;;10259814;28;20258;-65
2021/05/31 21:45:51;;;;;;;6.03;4.10;;;;;;;;;;10260178;28;20034;-66
2021/05/31 21:50:48;;;;;;;6.97;4.03;;;;;;;;;;10254518;28;20053;-65
2021/05/31 21:55:46;;;;;;;5.37;4.10;;;;;;;;;;10258999;28;20042;-65
2021/05/31 22:00:44;;;;;;;7.27;3.63;;;;;;;;;;10261522;28;20064;-65
2021/05/31 22:05:42;;;;;;;7.95;4.22;;;;;;;;;;10266775;28;20030;-66
2021/05/31 22:10:40;;;;;;;;;;;;;;;;;;10248979;28;20029;-66
2021/05/31 22:15:50;;;;;;;4.90;3.63;;;;;;;;;;10270223;28;19921;-64
2021/05/31 22:20:47;;;;;;;5.80;3.92;;;;;;;;;;10251085;28;20072;-64
2021/05/31 22:25:45;;;;;;;5.37;2.93;;;;;;;;;;10260220;28;20044;-65
2021/05/31 22:35:41;;;;;;;6.93;3.00;;;;;;;;;;10258826;28;20281;-65
2021/05/31 22:40:47;;;;;;;4.90;3.47;;;;;;;;;;10268641;28;20037;-65
2021/05/31 23:17:37;;;;;;;11.88;4.47;;;;;;;;;;10207969;28;20429;-64
2021/05/31 23:22:35;;;;;;;7.35;4.57;;;;;;;;;;10264194;28;20120;-65
2021/05/31 23:27:32;;;;;;;8.32;4.40;;;;;;;;;;10265778;28;20042;-65
2021/05/31 23:32:30;;;;;;;6.73;4.23;;;;;;;;;;10264558;28;20041;-66
2021/05/31 23:37:27;;;;;;;7.90;4.40;;;;;;;;;;10266043;28;20515;-65
2021/05/31 23:42:24;;;;;;;8.60;5.13;;;;;;;;;;10264813;28;20712;-64
2021/05/31 23:47:22;;;;;;;9.37;4.97;;;;;;;;;;10258390;28;20107;-65
2021/05/31 23:52:19;;;;;;;5.93;4.20;;;;;;;;;;10258201;28;20455;-65
2021/05/31 23:57:17;;;;;;;7.10;5.00;;;;;;;;;;10263193;28;20037;-64
